sensor_id;sensor_type;location;lat;lon;timestamp;P1;durP1;ratioP1;P2;durP2;ratioP2
14153;SDS011;7157;53.144;7.570;2023-04-06T00:00:11;10.25;;;5.25;;
14153;SDS011;7157;53.144;7.570;2023-04-06T00:10:17;14.70;;;5.95;;
14153;SDS011;7157;53.144;7.570;2023-04-06T00:20:19;8.90;;;5.32;;
14153;SDS011;7157;53.144;7.570;2023-04-06T00:30:24;19.90;;;5.68;;
14153;SDS011;7157;53.144;7.570;2023-04-06T00:40:27;9.20;;;5.60;;
14153;SDS011;7157;53.144;7.570;2023-04-06T00:50:31;11.27;;;6.15;;
14153;SDS011;7157;53.144;7.570;2023-04-06T01:00:34;13.40;;;6.07;;
14153;SDS011;7157;53.144;7.570;2023-04-06T01:10:38;14.23;;;6.15;;
14153;SDS011;7157;53.144;7.570;2023-04-06T01:20:41;11.55;;;6.40;;
14153;SDS011;7157;53.144;7.570;2023-04-06T01:30:45;13.80;;;6.82;;
14153;SDS011;7157;53.144;7.570;2023-04-06T01:40:48;10.35;;;5.85;;
14153;SDS011;7157;53.144;7.570;2023-04-06T01:50:52;14.68;;;6.85;;
14153;SDS011;7157;53.144;7.570;2023-04-06T02:00:55;15.52;;;7.20;;
14153;SDS011;7157;53.144;7.570;2023-04-06T02:11:00;17.95;;;6.97;;
14153;SDS011;7157;53.144;7.570;2023-04-06T02:21:03;12.68;;;7.05;;
14153;SDS011;7157;53.144;7.570;2023-04-06T02:31:08;12.80;;;7.25;;
14153;SDS011;7157;53.144;7.570;2023-04-06T02:41:11;12.00;;;6.72;;
14153;SDS011;7157;53.144;7.570;2023-04-06T02:51:15;16.40;;;7.65;;
14153;SDS011;7157;53.144;7.570;2023-04-06T03:01:18;10.07;;;5.97;;
14153;SDS011;7157;53.144;7.570;2023-04-06T03:11:26;13.00;;;7.32;;
14153;SDS011;7157;53.144;7.570;2023-04-06T03:21:29;13.50;;;7.60;;
14153;SDS011;7157;53.144;7.570;2023-04-06T03:31:33;16.13;;;7.10;;
14153;SDS011;7157;53.144;7.570;2023-04-06T03:41:37;14.60;;;7.90;;
14153;SDS011;7157;53.144;7.570;2023-04-06T03:51:41;11.43;;;6.65;;
14153;SDS011;7157;53.144;7.570;2023-04-06T04:01:43;16.33;;;7.93;;
14153;SDS011;7157;53.144;7.570;2023-04-06T04:11:48;15.60;;;8.23;;
14153;SDS011;7157;53.144;7.570;2023-04-06T04:21:50;14.18;;;7.70;;
14153;SDS011;7157;53.144;7.570;2023-04-06T04:31:55;14.40;;;7.78;;
14153;SDS011;7157;53.144;7.570;2023-04-06T04:41:58;15.10;;;7.60;;
14153;SDS011;7157;53.144;7.570;2023-04-06T04:52:02;14.25;;;7.68;;
14153;SDS011;7157;53.144;7.570;2023-04-06T05:02:05;11.73;;;6.90;;
14153;SDS011;7157;53.144;7.570;2023-04-06T05:12:09;13.25;;;7.57;;
14153;SDS011;7157;53.144;7.570;2023-04-06T05:22:13;13.52;;;7.88;;
14153;SDS011;7157;53.144;7.570;2023-04-06T05:32:20;12.75;;;7.15;;
14153;SDS011;7157;53.144;7.570;2023-04-06T05:42:25;12.30;;;6.72;;
14153;SDS011;7157;53.144;7.570;2023-04-06T05:52:30;13.80;;;6.70;;
14153;SDS011;7157;53.144;7.570;2023-04-06T06:02:32;15.00;;;7.55;;
14153;SDS011;7157;53.144;7.570;2023-04-06T06:12:37;11.85;;;6.57;;
14153;SDS011;7157;53.144;7.570;2023-04-06T06:22:40;19.45;;;7.03;;
14153;SDS011;7157;53.144;7.570;2023-04-06T06:32:44;16.58;;;6.47;;
14153;SDS011;7157;53.144;7.570;2023-04-06T06:42:47;15.07;;;6.10;;
14153;SDS011;7157;53.144;7.570;2023-04-06T06:52:51;10.30;;;5.75;;
14153;SDS011;7157;53.144;7.570;2023-04-06T07:02:54;9.18;;;5.60;;
14153;SDS011;7157;53.144;7.570;2023-04-06T07:12:58;9.45;;;5.10;;
14153;SDS011;7157;53.144;7.570;2023-04-06T07:23:01;9.30;;;5.55;;
14153;SDS011;7157;53.144;7.570;2023-04-06T07:33:06;9.27;;;4.97;;
14153;SDS011;7157;53.144;7.570;2023-04-06T07:43:09;9.65;;;5.95;;
14153;SDS011;7157;53.144;7.570;2023-04-06T07:53:13;10.68;;;5.53;;
14153;SDS011;7157;53.144;7.570;2023-04-06T08:03:16;14.15;;;5.72;;
14153;SDS011;7157;53.144;7.570;2023-04-06T08:13:20;10.30;;;6.22;;
14153;SDS011;7157;53.144;7.570;2023-04-06T08:23:23;10.25;;;5.82;;
14153;SDS011;7157;53.144;7.570;2023-04-06T08:33:27;10.52;;;5.88;;
14153;SDS011;7157;53.144;7.570;2023-04-06T08:43:30;14.15;;;5.97;;
14153;SDS011;7157;53.144;7.570;2023-04-06T08:53:35;10.52;;;5.57;;
14153;SDS011;7157;53.144;7.570;2023-04-06T09:03:39;13.13;;;6.13;;
14153;SDS011;7157;53.144;7.570;2023-04-06T09:13:48;11.40;;;6.15;;
14153;SDS011;7157;53.144;7.570;2023-04-06T09:23:58;11.30;;;5.97;;
14153;SDS011;7157;53.144;7.570;2023-04-06T09:34:03;10.15;;;5.75;;
14153;SDS011;7157;53.144;7.570;2023-04-06T09:44:07;11.32;;;6.13;;
14153;SDS011;7157;53.144;7.570;2023-04-06T09:54:17;10.20;;;6.28;;
14153;SDS011;7157;53.144;7.570;2023-04-06T10:04:24;12.50;;;6.60;;
14153;SDS011;7157;53.144;7.570;2023-04-06T10:14:35;11.48;;;6.30;;
14153;SDS011;7157;53.144;7.570;2023-04-06T10:24:39;11.63;;;6.00;;
14153;SDS011;7157;53.144;7.570;2023-04-06T10:34:43;9.98;;;6.13;;
14153;SDS011;7157;53.144;7.570;2023-04-06T10:44:46;16.02;;;7.13;;
14153;SDS011;7157;53.144;7.570;2023-04-06T10:54:53;14.27;;;7.88;;
14153;SDS011;7157;53.144;7.570;2023-04-06T11:04:58;15.05;;;8.80;;
14153;SDS011;7157;53.144;7.570;2023-04-06T11:15:03;15.60;;;8.88;;
14153;SDS011;7157;53.144;7.570;2023-04-06T11:25:07;14.32;;;9.20;;
14153;SDS011;7157;53.144;7.570;2023-04-06T11:35:20;14.50;;;9.88;;
14153;SDS011;7157;53.144;7.570;2023-04-06T11:45:23;11.13;;;8.85;;
14153;SDS011;7157;53.144;7.570;2023-04-06T11:55:27;12.27;;;9.70;;
14153;SDS011;7157;53.144;7.570;2023-04-06T12:05:33;12.77;;;9.45;;
14153;SDS011;7157;53.144;7.570;2023-04-06T12:15:37;13.82;;;8.93;;
14153;SDS011;7157;53.144;7.570;2023-04-06T12:25:42;14.27;;;9.38;;
14153;SDS011;7157;53.144;7.570;2023-04-06T12:35:46;12.25;;;8.68;;
14153;SDS011;7157;53.144;7.570;2023-04-06T12:45:49;15.00;;;9.73;;
14153;SDS011;7157;53.144;7.570;2023-04-06T12:55:54;14.23;;;8.93;;
14153;SDS011;7157;53.144;7.570;2023-04-06T13:05:58;16.48;;;9.65;;
14153;SDS011;7157;53.144;7.570;2023-04-06T13:16:04;14.93;;;9.98;;
14153;SDS011;7157;53.144;7.570;2023-04-06T13:26:09;13.98;;;9.05;;
14153;SDS011;7157;53.144;7.570;2023-04-06T13:36:13;16.60;;;10.13;;
14153;SDS011;7157;53.144;7.570;2023-04-06T13:46:18;16.27;;;10.02;;
14153;SDS011;7157;53.144;7.570;2023-04-06T13:56:23;16.45;;;9.43;;
14153;SDS011;7157;53.144;7.570;2023-04-06T14:06:25;15.98;;;9.23;;
14153;SDS011;7157;53.144;7.570;2023-04-06T14:16:33;17.60;;;10.23;;
14153;SDS011;7157;53.144;7.570;2023-04-06T14:26:36;15.45;;;10.30;;
14153;SDS011;7157;53.144;7.570;2023-04-06T14:36:41;16.92;;;10.98;;
14153;SDS011;7157;53.144;7.570;2023-04-06T14:46:44;18.40;;;11.85;;
14153;SDS011;7157;53.144;7.570;2023-04-06T14:56:48;18.20;;;11.30;;
14153;SDS011;7157;53.144;7.570;2023-04-06T15:06:51;17.98;;;11.77;;
14153;SDS011;7157;53.144;7.570;2023-04-06T15:16:55;22.77;;;13.02;;
14153;SDS011;7157;53.144;7.570;2023-04-06T15:26:58;23.33;;;13.50;;
14153;SDS011;7157;53.144;7.570;2023-04-06T15:37:03;22.83;;;13.10;;
14153;SDS011;7157;53.144;7.570;2023-04-06T15:47:06;24.27;;;12.80;;
14153;SDS011;7157;53.144;7.570;2023-04-06T15:57:10;25.17;;;14.80;;
14153;SDS011;7157;53.144;7.570;2023-04-06T16:07:13;24.42;;;13.55;;
14153;SDS011;7157;53.144;7.570;2023-04-06T16:17:17;22.60;;;14.07;;
14153;SDS011;7157;53.144;7.570;2023-04-06T16:27:20;23.45;;;14.02;;
14153;SDS011;7157;53.144;7.570;2023-04-06T16:37:24;30.33;;;14.38;;
14153;SDS011;7157;53.144;7.570;2023-04-06T16:47:29;22.52;;;13.10;;
14153;SDS011;7157;53.144;7.570;2023-04-06T16:57:34;23.42;;;12.32;;
14153;SDS011;7157;53.144;7.570;2023-04-06T17:07:37;20.10;;;11.52;;
14153;SDS011;7157;53.144;7.570;2023-04-06T17:17:41;27.50;;;13.93;;
14153;SDS011;7157;53.144;7.570;2023-04-06T17:27:44;21.42;;;12.35;;
14153;SDS011;7157;53.144;7.570;2023-04-06T17:37:49;20.00;;;11.45;;
14153;SDS011;7157;53.144;7.570;2023-04-06T17:47:52;18.52;;;11.05;;
14153;SDS011;7157;53.144;7.570;2023-04-06T17:57:56;20.63;;;10.98;;
14153;SDS011;7157;53.144;7.570;2023-04-06T18:07:58;18.98;;;10.18;;
14153;SDS011;7157;53.144;7.570;2023-04-06T18:18:03;23.08;;;11.05;;
14153;SDS011;7157;53.144;7.570;2023-04-06T18:28:07;24.85;;;12.18;;
14153;SDS011;7157;53.144;7.570;2023-04-06T18:38:12;17.48;;;10.63;;
14153;SDS011;7157;53.144;7.570;2023-04-06T18:48:15;18.52;;;9.77;;
14153;SDS011;7157;53.144;7.570;2023-04-06T18:58:19;20.65;;;9.57;;
14153;SDS011;7157;53.144;7.570;2023-04-06T19:08:22;21.17;;;10.02;;
14153;SDS011;7157;53.144;7.570;2023-04-06T19:18:26;18.45;;;10.73;;
14153;SDS011;7157;53.144;7.570;2023-04-06T19:28:29;22.40;;;10.93;;
14153;SDS011;7157;53.144;7.570;2023-04-06T19:38:33;20.13;;;11.27;;
14153;SDS011;7157;53.144;7.570;2023-04-06T19:48:36;23.73;;;10.80;;
14153;SDS011;7157;53.144;7.570;2023-04-06T19:58:40;23.33;;;11.73;;
14153;SDS011;7157;53.144;7.570;2023-04-06T20:08:43;26.70;;;12.57;;
14153;SDS011;7157;53.144;7.570;2023-04-06T20:18:47;26.40;;;12.50;;
14153;SDS011;7157;53.144;7.570;2023-04-06T20:28:50;30.35;;;12.45;;
14153;SDS011;7157;53.144;7.570;2023-04-06T20:38:54;21.63;;;12.25;;
14153;SDS011;7157;53.144;7.570;2023-04-06T20:48:57;24.13;;;12.40;;
14153;SDS011;7157;53.144;7.570;2023-04-06T20:59:02;27.60;;;12.68;;
14153;SDS011;7157;53.144;7.570;2023-04-06T21:09:05;29.63;;;12.88;;
14153;SDS011;7157;53.144;7.570;2023-04-06T21:19:09;22.35;;;11.85;;
14153;SDS011;7157;53.144;7.570;2023-04-06T21:29:12;20.40;;;11.77;;
14153;SDS011;7157;53.144;7.570;2023-04-06T21:39:16;19.05;;;10.63;;
14153;SDS011;7157;53.144;7.570;2023-04-06T21:49:18;19.73;;;10.68;;
14153;SDS011;7157;53.144;7.570;2023-04-06T21:59:22;18.45;;;10.82;;
14153;SDS011;7157;53.144;7.570;2023-04-06T22:09:25;18.65;;;9.48;;
14153;SDS011;7157;53.144;7.570;2023-04-06T22:19:29;15.18;;;8.18;;
14153;SDS011;7157;53.144;7.570;2023-04-06T22:29:32;15.18;;;7.50;;
14153;SDS011;7157;53.144;7.570;2023-04-06T22:39:36;14.68;;;7.93;;
14153;SDS011;7157;53.144;7.570;2023-04-06T22:49:38;10.32;;;6.05;;
14153;SDS011;7157;53.144;7.570;2023-04-06T22:59:43;10.52;;;6.38;;
14153;SDS011;7157;53.144;7.570;2023-04-06T23:09:45;10.95;;;6.85;;
14153;SDS011;7157;53.144;7.570;2023-04-06T23:19:49;10.98;;;6.55;;
14153;SDS011;7157;53.144;7.570;2023-04-06T23:29:52;9.98;;;6.00;;
14153;SDS011;7157;53.144;7.570;2023-04-06T23:39:57;10.00;;;6.03;;
14153;SDS011;7157;53.144;7.570;2023-04-06T23:50:00;10.18;;;5.97;;
